createdAt,value
2022-09-11T00:01:23.665Z,96032.45
2022-09-11T00:03:51.927Z,96032.48
2022-09-11T00:06:29.403Z,96025.55
2022-09-11T00:09:01.207Z,96020.27
2022-09-11T00:11:31.565Z,96015.65
2022-09-11T00:14:00.188Z,96016.77
2022-09-11T00:16:36.915Z,96019.59
2022-09-11T00:19:07.558Z,96020.59
2022-09-11T00:21:36.850Z,96026.10
2022-09-11T00:24:05.651Z,96023.94
2022-09-11T00:26:33.834Z,96019.28
2022-09-11T00:29:02.401Z,96020.76
2022-09-11T00:31:32.688Z,96024.27
2022-09-11T00:34:01.027Z,96025.39
2022-09-11T00:36:31.837Z,96027.03
2022-09-11T00:39:00.178Z,96025.09
2022-09-11T00:41:30.900Z,96025.33
2022-09-11T00:44:01.126Z,96028.85
2022-09-11T00:46:40.975Z,96033.45
2022-09-11T00:49:18.003Z,96030.98
2022-09-11T00:51:49.730Z,96032.04
2022-09-11T00:54:21.322Z,96028.98
2022-09-11T00:56:50.618Z,96033.54
2022-09-11T00:59:20.741Z,96030.86
2022-09-11T01:01:49.090Z,96030.05
2022-09-11T01:04:17.309Z,96029.67
2022-09-11T01:06:46.935Z,96027.66
2022-09-11T01:09:15.665Z,96019.76
2022-09-11T01:11:56.979Z,96016.48
2022-09-11T01:14:36.999Z,96016.95
2022-09-11T01:17:24.130Z,96012.69
2022-09-11T01:19:52.223Z,96007.70
2022-09-11T01:22:31.527Z,96002.88
2022-09-11T01:25:28.097Z,96004.22
2022-09-11T01:27:58.773Z,96004.86
2022-09-11T01:30:37.456Z,95999.19
2022-09-11T01:33:25.363Z,96005.82
2022-09-11T01:36:02.699Z,96003.05
2022-09-11T01:38:33.911Z,96001.00
2022-09-11T01:41:02.130Z,95997.90
2022-09-11T01:43:33.132Z,95989.70
2022-09-11T01:46:02.379Z,95989.02
2022-09-11T01:48:35.748Z,95988.42
2022-09-11T01:51:04.754Z,95990.27
2022-09-11T01:53:35.449Z,95990.10
2022-09-11T01:56:16.702Z,95989.73
2022-09-11T01:58:48.104Z,95986.08
2022-09-11T02:01:19.945Z,95981.61
2022-09-11T02:03:54.860Z,95980.04
2022-09-11T02:10:33.302Z,95977.67
2022-09-11T02:13:13.549Z,95973.33
2022-09-11T02:15:47.379Z,95973.38
2022-09-11T02:18:20.280Z,95973.66
2022-09-11T02:20:48.889Z,95976.71
2022-09-11T02:23:17.382Z,95977.16
2022-09-11T02:25:46.265Z,95975.95
2022-09-11T02:28:14.746Z,95974.84
2022-09-11T02:30:44.135Z,95968.39
2022-09-11T02:33:28.373Z,95971.37
2022-09-11T02:36:02.662Z,95978.52
2022-09-11T02:38:37.616Z,95979.41
2022-09-11T02:41:24.285Z,95983.04
2022-09-11T02:43:55.746Z,95979.09
2022-09-11T02:46:23.940Z,95973.75
2022-09-11T02:48:58.113Z,95969.81
2022-09-11T02:51:30.328Z,95969.61
2022-09-11T02:53:58.527Z,95970.52
2022-09-11T02:56:32.206Z,95969.14
2022-09-11T02:59:03.972Z,95965.79
2022-09-11T03:05:37.441Z,95960.17
2022-09-11T03:08:05.769Z,95961.19
2022-09-11T03:10:34.968Z,95956.96
2022-09-11T03:13:03.123Z,95956.13
2022-09-11T03:15:32.985Z,95952.18
2022-09-11T03:18:01.694Z,95952.64
2022-09-11T03:20:29.838Z,95954.48
2022-09-11T03:22:57.919Z,95954.08
2022-09-11T03:25:28.278Z,95953.63
2022-09-11T03:27:57.445Z,95957.51
2022-09-11T03:30:27.620Z,95959.95
2022-09-11T03:32:55.770Z,95958.64
2022-09-11T03:35:30.509Z,95953.02
2022-09-11T03:37:58.661Z,95951.86
2022-09-11T03:40:27.110Z,95956.55
2022-09-11T03:42:55.517Z,95955.14
2022-09-11T03:45:23.731Z,95953.42
2022-09-11T03:47:51.906Z,95951.92
2022-09-11T03:50:20.101Z,95953.38
2022-09-11T03:52:49.217Z,95958.51
2022-09-11T03:55:17.838Z,95963.75
2022-09-11T03:57:46.404Z,95967.44
2022-09-11T04:00:14.591Z,95969.91
2022-09-11T04:02:49.947Z,95969.94
2022-09-11T04:05:31.771Z,95972.59
2022-09-11T04:08:02.479Z,95972.21
2022-09-11T04:10:32.744Z,95972.02
2022-09-11T04:13:01.882Z,95971.98
2022-09-11T04:15:33.124Z,95972.02
2022-09-11T04:18:06.043Z,95969.99
2022-09-11T04:20:38.659Z,95973.05
2022-09-11T04:23:06.937Z,95973.08
2022-09-11T04:25:35.120Z,95973.02
2022-09-11T04:28:05.273Z,95975.60
2022-09-11T04:30:35.550Z,95968.64
2022-09-11T04:33:04.301Z,95971.30
2022-09-11T04:35:33.380Z,95970.08
2022-09-11T04:38:01.958Z,95973.52
2022-09-11T04:40:30.378Z,95974.13
2022-09-11T04:42:58.624Z,95972.70
2022-09-11T04:45:27.323Z,95972.30
2022-09-11T04:47:57.016Z,95975.52
2022-09-11T04:50:25.188Z,95976.65
2022-09-11T04:53:32.393Z,95977.35
2022-09-11T04:56:04.544Z,95981.04
2022-09-11T04:58:38.719Z,95985.94
2022-09-11T05:01:11.199Z,95982.20
2022-09-11T05:03:40.341Z,95979.45
2022-09-11T05:06:09.938Z,95979.57
2022-09-11T05:08:38.286Z,95980.95
2022-09-11T05:11:06.959Z,95980.50
2022-09-11T05:13:36.789Z,95978.71
2022-09-11T05:16:10.080Z,95979.17
2022-09-11T05:18:40.234Z,95978.33
2022-09-11T05:21:15.076Z,95976.52
2022-09-11T05:23:46.992Z,95977.73
2022-09-11T05:26:16.318Z,95977.04
2022-09-11T05:28:45.615Z,95976.72
2022-09-11T05:31:16.197Z,95974.28
2022-09-11T05:33:45.464Z,95972.35
2022-09-11T05:36:31.289Z,95970.09
2022-09-11T05:38:59.714Z,95966.73
2022-09-11T05:41:28.333Z,95970.64
2022-09-11T05:43:58.015Z,95970.52
2022-09-11T05:46:26.530Z,95974.73
2022-09-11T05:48:59.297Z,95973.96
2022-09-11T05:51:28.199Z,95973.95
2022-09-11T05:53:58.816Z,95969.42
2022-09-11T05:56:28.532Z,95964.02
2022-09-11T05:59:03.988Z,95965.70
2022-09-11T06:01:35.924Z,95968.49
2022-09-11T06:04:41.382Z,95967.41
2022-09-11T06:07:09.784Z,95968.41
2022-09-11T06:09:38.629Z,95967.77
2022-09-11T06:12:07.042Z,95964.84
2022-09-11T06:14:36.280Z,95967.23
2022-09-11T06:17:06.674Z,95967.63
2022-09-11T06:19:35.371Z,95960.77
2022-09-11T06:22:03.551Z,95962.05
2022-09-11T06:24:36.882Z,95963.20
2022-09-11T06:27:05.211Z,95965.18
2022-09-11T06:29:34.415Z,95963.21
2022-09-11T06:32:04.137Z,95962.89
2022-09-11T06:34:33.631Z,95962.19
2022-09-11T06:37:30.039Z,95963.21
2022-09-11T06:39:58.330Z,95966.13
2022-09-11T06:42:28.975Z,95963.03
2022-09-11T06:44:59.428Z,95957.09
2022-09-11T06:47:30.077Z,95959.07
2022-09-11T06:49:58.251Z,95954.35
2022-09-11T06:53:07.498Z,95950.87
2022-09-11T06:55:41.739Z,95947.73
2022-09-11T06:58:11.897Z,95951.14
2022-09-11T07:00:40.875Z,95961.14
2022-09-11T07:03:11.610Z,95956.35
2022-09-11T07:05:45.578Z,95950.20
2022-09-11T07:08:14.286Z,95941.88
2022-09-11T07:10:43.230Z,95943.79
2022-09-11T07:13:11.372Z,95946.16
2022-09-11T07:15:40.124Z,95941.67
2022-09-11T07:18:08.954Z,95942.75
2022-09-11T07:20:39.059Z,95942.08
2022-09-11T07:23:08.240Z,95941.41
2022-09-11T07:25:38.699Z,95939.39
2022-09-11T07:28:07.898Z,95944.27
2022-09-11T07:30:36.333Z,95953.82
2022-09-11T07:33:04.921Z,95954.02
2022-09-11T07:35:36.574Z,95954.27
2022-09-11T07:38:28.967Z,95950.32
2022-09-11T07:40:57.201Z,95952.36
2022-09-11T07:43:25.405Z,95954.23
2022-09-11T07:45:54.091Z,95951.11
2022-09-11T07:48:22.676Z,95951.17
2022-09-11T07:50:58.312Z,95947.46
2022-09-11T07:53:26.756Z,95947.10
2022-09-11T07:55:56.333Z,95946.34
2022-09-11T07:58:25.102Z,95951.33
2022-09-11T08:00:57.825Z,95949.34
2022-09-11T08:03:26.111Z,95952.41
2022-09-11T08:05:58.649Z,95955.02
2022-09-11T08:08:29.228Z,95953.73
2022-09-11T08:10:57.846Z,95954.07
2022-09-11T08:13:26.004Z,95952.58
2022-09-11T08:15:54.153Z,95955.92
2022-09-11T08:18:22.555Z,95952.16
2022-09-11T08:20:51.022Z,95951.32
2022-09-11T08:23:21.534Z,95953.67
2022-09-11T08:25:51.252Z,95954.03
2022-09-11T08:28:20.073Z,95953.31
2022-09-11T08:30:49.677Z,95952.66
2022-09-11T08:33:19.642Z,95950.84
2022-09-11T08:35:48.117Z,95953.50
2022-09-11T08:38:16.240Z,95953.05
2022-09-11T08:44:31.320Z,95952.67
2022-09-11T08:47:10.500Z,95950.05
2022-09-11T08:49:41.055Z,95945.23
2022-09-11T08:52:12.526Z,95940.92
2022-09-11T08:54:41.970Z,95940.64
2022-09-11T08:57:29.931Z,95942.77
2022-09-11T09:00:12.972Z,95946.73
2022-09-11T09:02:58.708Z,95943.66
2022-09-11T09:05:44.570Z,95948.17
2022-09-11T09:08:35.462Z,95948.96
2022-09-11T09:11:30.277Z,95951.98
2022-09-11T09:14:07.726Z,95955.23
2022-09-11T09:16:55.079Z,95958.95
2022-09-11T09:19:25.753Z,95959.00
2022-09-11T09:22:03.457Z,95958.61
2022-09-11T09:28:41.870Z,95952.04
2022-09-11T09:31:12.175Z,95955.95
2022-09-11T09:34:09.931Z,95955.24
2022-09-11T09:37:01.853Z,95954.58
2022-09-11T09:39:30.641Z,95947.98
2022-09-11T09:42:02.473Z,95947.09
2022-09-11T09:44:39.769Z,95947.77
2022-09-11T09:47:12.395Z,95948.45
2022-09-11T09:49:40.879Z,95947.35
2022-09-11T09:52:29.829Z,95950.14
2022-09-11T09:54:58.755Z,95951.04
2022-09-11T09:57:31.902Z,95953.05
2022-09-11T10:00:09.625Z,95952.77
2022-09-11T10:02:54.201Z,95948.41
2022-09-11T10:05:27.170Z,95943.16
2022-09-11T10:07:55.266Z,95946.14
2022-09-11T10:10:26.916Z,95940.99
2022-09-11T10:13:18.080Z,95945.00
2022-09-11T10:15:49.268Z,95946.46
2022-09-11T10:18:34.165Z,95942.23
2022-09-11T10:21:23.095Z,95939.16
2022-09-11T10:24:01.180Z,95928.13
2022-09-11T10:26:35.069Z,95924.61
2022-09-11T10:29:07.273Z,95923.33
2022-09-11T10:31:39.276Z,95917.88
2022-09-11T10:34:16.033Z,95918.14
2022-09-11T10:37:04.058Z,95919.79
2022-09-11T10:39:35.394Z,95917.73
2022-09-11T10:42:23.251Z,95920.83
2022-09-11T10:44:53.322Z,95920.29
2022-09-11T10:47:22.375Z,95917.70
2022-09-11T10:49:50.889Z,95918.73
2022-09-11T10:52:22.348Z,95916.46
2022-09-11T10:55:04.039Z,95913.75
2022-09-11T10:57:32.885Z,95912.42
2022-09-11T11:00:01.247Z,95914.16
2022-09-11T11:02:32.006Z,95908.64
2022-09-11T11:05:08.634Z,95907.79
2022-09-11T11:07:36.748Z,95910.89
2022-09-11T11:10:17.193Z,95915.48
2022-09-11T11:12:45.296Z,95914.13
2022-09-11T11:15:30.348Z,95916.30
2022-09-11T11:18:05.919Z,95917.25
2022-09-11T11:20:34.117Z,95913.70
2022-09-11T11:23:41.040Z,95912.04
2022-09-11T11:26:15.290Z,95911.53
2022-09-11T11:28:55.735Z,95911.52
2022-09-11T11:31:35.850Z,95909.92
2022-09-11T11:34:12.416Z,95912.20
2022-09-11T11:36:46.242Z,95913.06
2022-09-11T11:43:22.112Z,95912.52
2022-09-11T11:49:03.220Z,95903.48
2022-09-11T11:51:35.082Z,95903.11
2022-09-11T11:54:09.745Z,95902.00
2022-09-11T11:56:41.084Z,95900.04
2022-09-11T11:59:18.326Z,95897.34
2022-09-11T12:01:56.298Z,95896.35
2022-09-11T12:04:50.889Z,95897.11
2022-09-11T12:07:24.967Z,95895.20
2022-09-11T12:09:54.767Z,95901.38
2022-09-11T12:12:24.988Z,95903.01
2022-09-11T12:14:55.094Z,95907.16
2022-09-11T12:17:30.855Z,95908.67
2022-09-11T12:20:11.082Z,95901.35
2022-09-11T12:26:30.777Z,95895.83
2022-09-11T12:29:21.893Z,95895.45
2022-09-11T12:31:50.229Z,95885.48
2022-09-11T12:34:19.766Z,95889.08
2022-09-11T12:36:51.712Z,95885.59
2022-09-11T12:39:26.758Z,95882.02
2022-09-11T12:42:15.641Z,95874.28
2022-09-11T12:44:43.743Z,95875.23
2022-09-11T12:47:17.614Z,95869.20
2022-09-11T12:49:53.494Z,95869.66
2022-09-11T12:52:27.329Z,95868.02
2022-09-11T12:54:55.537Z,95867.61
2022-09-11T12:57:35.525Z,95869.64
2022-09-11T13:00:11.062Z,95871.77
2022-09-11T13:02:44.781Z,95870.48
2022-09-11T13:05:17.680Z,95859.85
2022-09-11T13:07:47.616Z,95854.03
2022-09-11T13:10:25.257Z,95857.08
2022-09-11T13:12:54.309Z,95852.12
2022-09-11T13:15:32.511Z,95849.73
2022-09-11T13:18:00.744Z,95850.66
2022-09-11T13:20:28.919Z,95851.48
2022-09-11T13:26:22.051Z,95846.76
2022-09-11T13:28:51.745Z,95849.91
2022-09-11T13:31:46.095Z,95851.83
2022-09-11T13:34:16.291Z,95857.48
2022-09-11T13:36:47.251Z,95854.70
2022-09-11T13:39:16.847Z,95858.95
2022-09-11T13:41:47.085Z,95859.25
2022-09-11T13:44:24.099Z,95862.54
2022-09-11T13:46:52.583Z,95861.23
2022-09-11T13:49:39.207Z,95864.70
2022-09-11T13:52:08.094Z,95865.94
2022-09-11T13:54:50.833Z,95860.39
2022-09-11T13:57:21.290Z,95861.96
2022-09-11T13:59:57.131Z,95859.52
2022-09-11T14:02:38.371Z,95859.13
2022-09-11T14:05:14.115Z,95857.17
2022-09-11T14:08:02.483Z,95853.46
2022-09-11T14:10:37.314Z,95854.52
2022-09-11T14:13:16.244Z,95855.45
2022-09-11T14:15:50.657Z,95854.79
2022-09-11T14:18:30.746Z,95852.08
2022-09-11T14:21:00.766Z,95855.60
2022-09-11T14:23:29.523Z,95852.77
2022-09-11T14:26:05.300Z,95851.70
2022-09-11T14:28:35.630Z,95848.20
2022-09-11T14:31:08.307Z,95852.20
2022-09-11T14:33:36.910Z,95846.23
2022-09-11T14:36:08.083Z,95843.29
2022-09-11T14:38:38.332Z,95842.64
2022-09-11T14:41:07.532Z,95837.91
2022-09-11T14:43:37.773Z,95840.85
2022-09-11T14:46:06.160Z,95840.46
2022-09-11T14:48:35.142Z,95841.61
2022-09-11T14:51:11.261Z,95833.58
2022-09-11T14:53:43.744Z,95832.52
2022-09-11T14:56:12.148Z,95831.23
2022-09-11T14:58:40.589Z,95824.20
2022-09-11T15:01:10.259Z,95825.46
2022-09-11T15:03:39.346Z,95827.48
2022-09-11T15:06:10.889Z,95829.75
2022-09-11T15:08:39.510Z,95826.51
2022-09-11T15:11:07.650Z,95828.91
2022-09-11T15:13:36.081Z,95828.74
2022-09-11T15:16:05.902Z,95826.41
2022-09-11T15:18:34.979Z,95828.11
2022-09-11T15:21:03.147Z,95826.05
2022-09-11T15:23:31.949Z,95828.30
2022-09-11T15:26:04.322Z,95832.86
2022-09-11T15:28:32.526Z,95830.06
2022-09-11T15:31:00.771Z,95833.75
2022-09-11T15:33:30.026Z,95841.39
2022-09-11T15:36:02.142Z,95840.39
2022-09-11T15:38:30.344Z,95844.70
2022-09-11T15:40:58.808Z,95847.10
2022-09-11T15:43:34.865Z,95845.55
2022-09-11T15:46:11.481Z,95852.16
2022-09-11T15:48:39.682Z,95852.03
2022-09-11T15:51:12.716Z,95854.83
2022-09-11T15:53:41.510Z,95855.79
2022-09-11T15:56:11.184Z,95857.00
2022-09-11T15:58:42.750Z,95854.77
2022-09-11T16:01:18.364Z,95860.94
2022-09-11T16:03:50.542Z,95861.77
2022-09-11T16:06:19.364Z,95863.48
2022-09-11T16:08:48.245Z,95864.14
2022-09-11T16:11:16.930Z,95863.24
2022-09-11T16:13:50.114Z,95866.64
2022-09-11T16:16:19.279Z,95865.22
2022-09-11T16:18:47.623Z,95864.23
2022-09-11T16:21:16.479Z,95863.13
2022-09-11T16:23:49.796Z,95862.20
2022-09-11T16:26:21.425Z,95862.91
2022-09-11T16:28:49.623Z,95861.52
2022-09-11T16:31:17.760Z,95865.91
2022-09-11T16:33:48.022Z,95867.27
2022-09-11T16:36:18.227Z,95864.74
2022-09-11T16:38:50.218Z,95862.91
2022-09-11T16:41:19.650Z,95861.73
2022-09-11T16:43:49.236Z,95862.17
2022-09-11T16:46:18.714Z,95862.59
2022-09-11T16:48:51.876Z,95860.25
2022-09-11T16:51:23.675Z,95861.15
2022-09-11T16:53:52.179Z,95859.63
2022-09-11T16:56:21.568Z,95853.85
2022-09-11T16:58:49.760Z,95861.09
2022-09-11T17:01:19.689Z,95859.66
2022-09-11T17:03:49.270Z,95864.19
2022-09-11T17:06:20.308Z,95867.52
2022-09-11T17:08:52.528Z,95869.80
2022-09-11T17:11:21.935Z,95870.89
2022-09-11T17:13:50.691Z,95875.14
2022-09-11T17:16:24.042Z,95869.77
2022-09-11T17:18:56.907Z,95869.25
2022-09-11T17:21:26.201Z,95870.55
2022-09-11T17:23:57.497Z,95874.50
2022-09-11T17:26:25.878Z,95877.85
2022-09-11T17:28:55.705Z,95881.45
2022-09-11T17:31:25.155Z,95882.51
2022-09-11T17:33:53.305Z,95882.98
2022-09-11T17:36:22.224Z,95883.39
2022-09-11T17:38:55.562Z,95883.13
2022-09-11T17:41:24.399Z,95883.45
2022-09-11T17:43:53.767Z,95889.83
2022-09-11T17:46:24.056Z,95891.89
2022-09-11T17:48:52.299Z,95896.03
2022-09-11T17:51:25.224Z,95893.08
2022-09-11T17:53:57.726Z,95900.98
2022-09-11T17:56:27.726Z,95905.71
2022-09-11T17:58:57.049Z,95907.09
2022-09-11T18:01:26.101Z,95910.77
2022-09-11T18:03:56.883Z,95915.47
2022-09-11T18:06:26.467Z,95911.10
2022-09-11T18:08:56.796Z,95912.70
2022-09-11T18:11:25.178Z,95916.02
2022-09-11T18:13:55.012Z,95916.84
2022-09-11T18:16:23.245Z,95914.64
2022-09-11T18:18:51.481Z,95916.73
2022-09-11T18:21:19.673Z,95916.29
2022-09-11T18:23:49.639Z,95917.52
2022-09-11T18:26:22.904Z,95915.30
2022-09-11T18:28:51.016Z,95916.80
2022-09-11T18:31:20.163Z,95913.61
2022-09-11T18:33:53.434Z,95914.58
2022-09-11T18:36:23.745Z,95917.63
2022-09-11T18:38:53.132Z,95914.65
2022-09-11T18:41:22.396Z,95913.86
2022-09-11T18:43:55.198Z,95910.21
2022-09-11T18:46:23.959Z,95910.39
2022-09-11T18:48:52.791Z,95908.89
2022-09-11T18:51:20.993Z,95908.88
2022-09-11T18:53:52.141Z,95909.73
2022-09-11T18:56:24.840Z,95910.52
2022-09-11T18:58:53.011Z,95914.55
2022-09-11T19:01:22.961Z,95921.83
2022-09-11T19:03:55.681Z,95919.77
2022-09-11T19:06:25.359Z,95926.64
2022-09-11T19:08:54.032Z,95927.89
2022-09-11T19:11:27.177Z,95927.80
2022-09-11T19:14:00.551Z,95926.40
2022-09-11T19:16:28.872Z,95926.49
2022-09-11T19:18:57.042Z,95930.35
2022-09-11T19:21:26.302Z,95930.41
2022-09-11T19:23:56.213Z,95929.50
2022-09-11T19:26:32.263Z,95931.63
2022-09-11T19:29:00.760Z,95933.09
2022-09-11T19:31:30.242Z,95930.38
2022-09-11T19:34:03.151Z,95934.52
2022-09-11T19:36:32.508Z,95932.44
2022-09-11T19:39:01.260Z,95931.11
2022-09-11T19:41:38.916Z,95921.25
2022-09-11T19:44:08.651Z,95920.27
2022-09-11T19:46:38.330Z,95923.59
2022-09-11T19:49:07.879Z,95920.92
2022-09-11T19:51:37.679Z,95924.24
2022-09-11T19:54:06.127Z,95921.45
2022-09-11T19:56:35.546Z,95923.11
2022-09-11T19:59:04.562Z,95921.73
2022-09-11T20:01:33.204Z,95917.10
2022-09-11T20:04:01.469Z,95915.41
2022-09-11T20:06:30.997Z,95909.89
2022-09-11T20:09:26.896Z,95916.72
2022-09-11T20:11:48.183Z,95941.48
2022-09-11T20:14:16.584Z,95946.00
2022-09-11T20:16:44.796Z,95946.94
2022-09-11T20:19:15.179Z,95951.29
2022-09-11T20:21:43.599Z,95952.70
2022-09-11T20:24:11.837Z,95949.44
2022-09-11T20:26:39.977Z,95952.90
2022-09-11T20:29:12.177Z,95951.64
2022-09-11T20:31:46.927Z,95950.55
2022-09-11T20:34:16.806Z,95948.39
2022-09-11T20:36:45.258Z,95945.56
2022-09-11T20:39:14.262Z,95944.61
2022-09-11T20:41:42.960Z,95946.29
2022-09-11T20:44:11.505Z,95945.17
2022-09-11T20:46:40.728Z,95937.11
2022-09-11T20:49:09.372Z,95936.40
2022-09-11T20:51:37.492Z,95930.16
2022-09-11T20:54:05.674Z,95935.96
2022-09-11T20:56:34.232Z,95936.81
2022-09-11T20:59:02.329Z,95929.24
2022-09-11T21:01:32.703Z,95925.95
2022-09-11T21:04:02.196Z,95921.83
2022-09-11T21:06:31.898Z,95919.10
2022-09-11T21:09:01.347Z,95926.75
2022-09-11T21:11:30.364Z,95928.04
2022-09-11T21:13:59.242Z,95928.52
2022-09-11T21:16:27.627Z,95926.35
2022-09-11T21:18:57.031Z,95923.71
2022-09-11T21:21:26.145Z,95922.86
2022-09-11T21:23:55.217Z,95915.90
2022-09-11T21:26:26.337Z,95918.83
2022-09-11T21:28:56.396Z,95916.16
2022-09-11T21:31:25.352Z,95917.11
2022-09-11T21:33:53.963Z,95918.48
2022-09-11T21:36:22.236Z,95915.52
2022-09-11T21:38:50.386Z,95920.21
2022-09-11T21:41:18.888Z,95919.53
2022-09-11T21:43:47.709Z,95918.72
2022-09-11T21:46:15.921Z,95914.91
2022-09-11T21:48:44.055Z,95915.45
2022-09-11T21:51:14.394Z,95915.42
2022-09-11T21:53:43.942Z,95914.23
2022-09-11T21:56:20.192Z,95917.88
2022-09-11T21:58:48.696Z,95916.41
2022-09-11T22:01:16.988Z,95916.73
2022-09-11T22:03:45.260Z,95911.67
2022-09-11T22:06:14.082Z,95910.01
2022-09-11T22:08:43.301Z,95910.98
2022-09-11T22:11:11.558Z,95906.11
2022-09-11T22:13:39.777Z,95900.73
2022-09-11T22:16:09.819Z,95902.16
2022-09-11T22:18:39.333Z,95899.52
2022-09-11T22:21:08.008Z,95897.19
2022-09-11T22:23:36.731Z,95897.93
2022-09-11T22:26:19.474Z,95895.63
2022-09-11T22:28:47.624Z,95895.20
2022-09-11T22:31:18.009Z,95896.86
2022-09-11T22:33:46.488Z,95893.02
2022-09-11T22:36:19.952Z,95892.43
2022-09-11T22:38:48.957Z,95890.98
2022-09-11T22:41:17.534Z,95899.30
2022-09-11T22:43:47.748Z,95896.80
2022-09-11T22:46:16.603Z,95894.42
2022-09-11T22:48:44.716Z,95896.47
2022-09-11T22:51:12.890Z,95897.16
2022-09-11T22:53:41.197Z,95893.73
2022-09-11T22:56:09.835Z,95897.47
2022-09-11T22:58:38.729Z,95895.69
2022-09-11T23:01:09.727Z,95896.52
2022-09-11T23:03:38.334Z,95894.78
2022-09-11T23:06:24.933Z,95900.08
2022-09-11T23:08:53.077Z,95896.77
2022-09-11T23:11:22.437Z,95894.58
2022-09-11T23:13:50.584Z,95891.71
2022-09-11T23:16:20.370Z,95894.98
2022-09-11T23:18:52.450Z,95894.65
2022-09-11T23:21:20.717Z,95891.86
2022-09-11T23:23:54.496Z,95892.08
2022-09-11T23:26:24.374Z,95896.67
2022-09-11T23:28:53.133Z,95893.66
2022-09-11T23:31:24.971Z,95894.12
2022-09-11T23:33:54.645Z,95892.14
2022-09-11T23:36:23.131Z,95889.13
2022-09-11T23:38:51.412Z,95892.35
2022-09-11T23:41:19.650Z,95888.90
2022-09-11T23:43:48.348Z,95889.20
2022-09-11T23:46:16.900Z,95890.48
2022-09-11T23:48:45.555Z,95888.92
2022-09-11T23:51:14.186Z,95889.13
2022-09-11T23:53:47.828Z,95884.52
2022-09-11T23:56:16.037Z,95884.67
2022-09-11T23:58:45.926Z,95884.96
